Time;durP1;ratioP1;P1;durP2;ratioP2;P2;SDS_P1;SDS_P2;PMS_P1;PMS_P2;Temp;Humidity;BMP_temperature;BMP_pressure;BME280_temperature;BME280_humidity;BME280_pressure;Samples;Min_cycle;Max_cycle;Signal;HPM_P1;HPM_P2
2023/12/07 00:02:15;;;;;;;215.57;42.93;;;1.10;99.90;;;;;;5054677;28;20213;-54
2023/12/07 00:04:43;;;;;;;306.10;44.47;;;1.20;99.90;;;;;;5032362;28;20207;-49
2023/12/07 00:07:10;;;;;;;297.30;46.37;;;1.20;99.90;;;;;;5056659;28;20627;-55
2023/12/07 00:09:37;;;;;;;341.90;46.57;;;1.20;99.90;;;;;;5050498;28;20276;-48
2023/12/07 00:12:04;;;;;;;286.27;45.93;;;1.10;99.90;;;;;;5062929;28;20207;-51
2023/12/07 00:14:31;;;;;;;242.67;43.50;;;1.10;99.90;;;;;;5047560;28;20213;-54
2023/12/07 00:16:58;;;;;;;210.87;42.37;;;1.10;99.90;;;;;;5061071;28;20275;-53
2023/12/07 00:19:25;;;;;;;233.23;47.60;;;1.20;99.90;;;;;;5055703;28;20272;-55
2023/12/07 00:21:53;;;;;;;189.47;43.23;;;1.20;99.90;;;;;;5033751;28;20624;-47
2023/12/07 00:24:20;;;;;;;305.33;47.33;;;1.20;99.90;;;;;;5052683;28;20226;-52
2023/12/07 00:26:46;;;;;;;278.00;44.90;;;1.10;99.90;;;;;;5062284;28;20272;-50
2023/12/07 00:29:13;;;;;;;323.13;47.07;;;1.10;99.90;;;;;;5062153;28;20619;-54
2023/12/07 00:31:40;;;;;;;235.60;45.67;;;1.10;99.90;;;;;;5050363;28;20252;-53
2023/12/07 00:34:07;;;;;;;224.67;43.23;;;1.20;99.90;;;;;;5062515;28;20256;-52
2023/12/07 00:36:34;;;;;;;159.00;40.93;;;1.20;99.90;;;;;;5029171;28;20231;-46
2023/12/07 00:39:03;;;;;;;203.77;44.90;;;1.20;99.90;;;;;;5045813;28;20194;-53
2023/12/07 00:41:30;;;;;;;187.30;43.23;;;1.20;99.90;;;;;;5060400;28;20201;-47
2023/12/07 00:43:57;;;;;;;208.20;44.97;;;1.20;99.90;;;;;;5060784;28;20202;-54
2023/12/07 00:46:24;;;;;;;195.80;43.57;;;1.20;99.90;;;;;;5051046;28;20349;-49
2023/12/07 00:48:51;;;;;;;207.63;44.30;;;1.20;99.90;;;;;;5061591;28;20652;-54
2023/12/07 00:51:18;;;;;;;241.93;47.40;;;1.20;99.90;;;;;;5060636;28;20244;-48
2023/12/07 00:53:44;;;;;;;151.70;41.07;;;1.20;99.90;;;;;;5034531;28;20206;-47
2023/12/07 00:56:13;;;;;;;218.33;46.10;;;1.20;99.90;;;;;;5050296;28;20218;-49
2023/12/07 00:58:39;;;;;;;181.73;44.23;;;1.20;99.90;;;;;;5061583;28;20187;-49
2023/12/07 01:01:07;;;;;;;168.73;43.70;;;1.10;99.90;;;;;;5047432;28;20307;-47
2023/12/07 01:03:33;;;;;;;177.67;43.77;;;1.20;99.90;;;;;;5062510;28;20191;-50
2023/12/07 01:06:00;;;;;;;178.93;43.83;;;1.20;99.90;;;;;;5058809;28;20235;-53
2023/12/07 01:08:27;;;;;;;148.50;43.90;;;1.20;99.90;;;;;;5032965;28;20264;-52
2023/12/07 01:10:54;;;;;;;156.83;44.30;;;1.20;99.90;;;;;;5050827;28;20234;-52
2023/12/07 01:13:22;;;;;;;138.60;42.27;;;1.20;99.90;;;;;;5061046;28;20229;-47
2023/12/07 01:15:49;;;;;;;141.73;42.53;;;1.20;99.90;;;;;;5059776;28;20340;-55
2023/12/07 01:18:15;;;;;;;168.50;46.00;;;1.20;99.90;;;;;;5050505;28;20202;-49
2023/12/07 01:20:42;;;;;;;162.17;45.27;;;1.20;99.90;;;;;;5062142;28;20248;-48
2023/12/07 01:23:09;;;;;;;136.73;40.43;;;1.10;99.90;;;;;;5029942;28;20208;-50
2023/12/07 01:25:36;;;;;;;138.23;41.77;;;1.20;99.90;;;;;;5053665;28;20222;-48
2023/12/07 01:28:03;;;;;;;142.00;41.17;;;1.10;99.90;;;;;;5058966;28;20215;-55
2023/12/07 01:30:31;;;;;;;142.50;41.23;;;1.20;99.90;;;;;;5062007;28;20253;-51
2023/12/07 01:32:58;;;;;;;141.77;42.83;;;1.10;99.90;;;;;;5049113;28;20271;-53
2023/12/07 01:35:25;;;;;;;128.07;41.73;;;1.20;99.90;;;;;;5061390;28;20249;-48
2023/12/07 01:37:51;;;;;;;123.43;40.50;;;1.10;99.90;;;;;;5049503;28;20195;-53
2023/12/07 01:40:18;;;;;;;120.97;39.43;;;1.20;99.90;;;;;;5035344;28;20272;-49
2023/12/07 01:42:51;;;;;;;134.63;41.27;;;1.10;99.90;;;;;;5061683;28;20260;-51
2023/12/07 01:45:18;;;;;;;114.57;39.67;;;1.20;99.90;;;;;;5057289;28;20194;-47
2023/12/07 01:47:47;;;;;;;129.60;40.20;;;1.20;99.90;;;;;;5049196;28;20222;-51
2023/12/07 01:50:15;;;;;;;115.73;39.33;;;1.20;99.90;;;;;;5059518;28;20187;-47
2023/12/07 01:52:48;;;;;;;127.10;40.30;;;1.20;99.90;;;;;;5061845;28;20285;-47
2023/12/07 01:55:16;;;;;;;115.20;37.93;;;1.20;99.90;;;;;;5030054;28;20273;-49
2023/12/07 01:57:45;;;;;;;106.17;37.97;;;1.20;99.90;;;;;;5052274;28;20206;-48
2023/12/07 02:00:13;;;;;;;94.90;37.30;;;1.20;99.90;;;;;;5058722;28;20221;-48
2023/12/07 02:02:40;;;;;;;110.50;37.27;;;1.20;99.90;;;;;;5061903;28;20282;-49
2023/12/07 02:05:09;;;;;;;101.63;37.63;;;1.20;99.90;;;;;;5047704;28;20221;-51
2023/12/07 02:07:36;;;;;;;103.10;36.23;;;1.20;99.90;;;;;;5059211;28;20194;-51
2023/12/07 02:10:03;;;;;;;107.43;37.20;;;1.20;99.90;;;;;;5031415;28;20264;-51
2023/12/07 02:12:30;;;;;;;104.17;37.33;;;1.20;99.90;;;;;;5050029;28;20227;-51
2023/12/07 02:14:57;;;;;;;103.67;38.53;;;1.20;99.90;;;;;;5063288;28;20234;-53
2023/12/07 02:17:31;;;;;;;105.63;37.17;;;1.20;99.90;;;;;;5052615;28;20263;-56
2023/12/07 02:20:06;;;;;;;104.63;36.93;;;1.20;99.90;;;;;;5049455;28;20214;-52
2023/12/07 02:22:43;;;;;;;102.40;35.70;;;1.20;99.90;;;;;;5060995;28;20273;-48
2023/12/07 02:25:13;;;;;;;101.33;36.37;;;1.20;99.90;;;;;;5063620;28;20213;-54
2023/12/07 02:27:45;;;;;;;105.43;36.30;;;1.20;99.90;;;;;;5032141;28;20198;-52
2023/12/07 02:30:13;;;;;;;104.60;36.67;;;1.20;99.90;;;;;;5063546;28;20233;-52
2023/12/07 02:32:42;;;;;;;112.07;38.63;;;1.30;99.90;;;;;;5061816;28;20191;-50
2023/12/07 02:35:11;;;;;;;104.07;36.23;;;1.20;99.90;;;;;;5054822;28;20271;-49
2023/12/07 02:37:43;;;;;;;94.80;37.27;;;1.20;99.90;;;;;;5059707;28;20205;-50
2023/12/07 02:40:11;;;;;;;107.80;36.40;;;1.20;99.90;;;;;;5065808;28;20708;-50
2023/12/07 02:42:40;;;;;;;107.53;36.03;;;1.20;99.90;;;;;;5026499;28;20199;-50
2023/12/07 02:45:10;;;;;;;112.03;37.30;;;1.20;99.90;;;;;;5065605;28;20202;-51
2023/12/07 02:47:37;;;;;;;97.00;36.97;;;1.20;99.90;;;;;;5059386;28;21031;-50
2023/12/07 02:50:06;;;;;;;116.00;37.27;;;1.20;99.90;;;;;;5054399;28;20233;-49
2023/12/07 02:52:33;;;;;;;114.33;36.03;;;1.20;99.90;;;;;;5061367;28;20190;-46
2023/12/07 02:55:00;;;;;;;106.97;36.47;;;1.20;99.90;;;;;;5065531;28;20681;-51
2023/12/07 02:57:27;;;;;;;110.90;38.13;;;1.20;99.90;;;;;;5025653;28;20481;-55
2023/12/07 02:59:54;;;;;;;121.77;37.70;;;1.20;99.90;;;;;;5063356;28;20217;-50
2023/12/07 03:02:22;;;;;;;125.67;40.00;;;1.20;99.90;;;;;;5063238;28;20256;-52
2023/12/07 03:04:49;;;;;;;111.07;37.60;;;1.20;99.90;;;;;;5052999;28;20206;-51
2023/12/07 03:07:15;;;;;;;114.37;35.63;;;1.20;99.90;;;;;;5064721;28;20627;-52
2023/12/07 03:09:42;;;;;;;106.50;35.57;;;1.20;99.90;;;;;;5061809;28;20218;-51
2023/12/07 03:12:09;;;;;;;98.63;35.90;;;1.20;99.90;;;;;;5065114;28;20203;-49
2023/12/07 03:14:36;;;;;;;108.57;35.50;;;1.20;99.90;;;;;;5022991;28;20260;-50
2023/12/07 03:17:04;;;;;;;109.23;37.00;;;1.20;99.90;;;;;;5063104;28;20623;-52
2023/12/07 03:19:32;;;;;;;108.73;36.83;;;1.20;99.90;;;;;;5051138;28;20194;-50
2023/12/07 03:21:59;;;;;;;100.47;33.90;;;1.20;99.90;;;;;;5054026;28;20210;-50
2023/12/07 03:24:26;;;;;;;96.10;33.27;;;1.30;99.90;;;;;;5059659;28;20191;-53
2023/12/07 03:26:53;;;;;;;99.67;34.70;;;1.20;99.90;;;;;;5064257;28;20717;-52
2023/12/07 03:29:20;;;;;;;100.97;33.33;;;1.20;99.90;;;;;;5027254;28;20684;-53
2023/12/07 03:31:46;;;;;;;97.43;33.40;;;1.30;99.90;;;;;;5061722;28;20194;-48
2023/12/07 03:34:15;;;;;;;93.30;34.40;;;1.20;99.90;;;;;;5063368;28;20195;-52
2023/12/07 03:36:46;;;;;;;97.83;34.60;;;1.20;99.90;;;;;;5051440;28;20233;-49
2023/12/07 03:39:13;;;;;;;91.23;32.47;;;1.30;99.90;;;;;;5063356;28;20199;-55
2023/12/07 03:41:39;;;;;;;96.93;30.83;;;1.30;99.90;;;;;;5061940;28;20190;-49
2023/12/07 03:44:06;;;;;;;88.50;32.13;;;1.20;99.90;;;;;;5064633;28;20199;-46
2023/12/07 03:46:33;;;;;;;97.33;33.50;;;1.20;99.90;;;;;;5034844;28;20226;-50
2023/12/07 03:49:00;;;;;;;103.87;33.80;;;1.30;99.90;;;;;;5064245;28;20206;-47
2023/12/07 03:51:27;;;;;;;93.33;33.33;;;1.30;99.90;;;;;;5049106;28;20191;-52
2023/12/07 03:53:55;;;;;;;93.30;33.77;;;1.30;99.90;;;;;;5064259;28;20194;-50
2023/12/07 03:56:26;;;;;;;95.13;33.00;;;1.20;99.90;;;;;;5060967;28;20677;-54
2023/12/07 03:58:53;;;;;;;78.93;31.97;;;1.30;99.90;;;;;;5063706;28;20194;-47
2023/12/07 04:01:23;;;;;;;76.17;30.53;;;1.30;99.90;;;;;;5030867;28;20210;-55
2023/12/07 04:03:50;;;;;;;92.27;33.90;;;1.30;99.90;;;;;;5063574;28;20203;-50
2023/12/07 04:06:17;;;;;;;82.47;30.97;;;1.30;99.90;;;;;;5061899;28;20636;-52
2023/12/07 04:08:44;;;;;;;91.83;31.60;;;1.30;99.90;;;;;;5051284;28;20346;-48
2023/12/07 04:11:13;;;;;;;98.50;34.33;;;1.30;99.90;;;;;;5062887;28;20202;-52
2023/12/07 04:13:41;;;;;;;89.27;33.00;;;1.30;99.90;;;;;;5061592;28;20183;-50
2023/12/07 04:16:08;;;;;;;92.27;32.47;;;1.30;99.90;;;;;;5033685;28;20245;-54
2023/12/07 04:18:35;;;;;;;82.90;32.37;;;1.30;99.90;;;;;;5060758;28;20187;-50
2023/12/07 04:21:02;;;;;;;93.37;33.07;;;1.30;99.90;;;;;;5063508;28;20195;-48
2023/12/07 04:23:29;;;;;;;79.73;32.20;;;1.30;99.90;;;;;;5049208;28;20338;-51
2023/12/07 04:25:56;;;;;;;90.33;32.37;;;1.30;99.90;;;;;;5063218;28;20327;-51
2023/12/07 04:28:24;;;;;;;86.03;31.63;;;1.30;99.90;;;;;;5059321;28;20260;-54
2023/12/07 04:30:51;;;;;;;86.67;32.17;;;1.40;99.90;;;;;;5062227;28;20219;-50
2023/12/07 04:33:18;;;;;;;78.47;30.77;;;1.40;99.90;;;;;;5030334;28;20211;-53
2023/12/07 04:35:45;;;;;;;77.33;31.57;;;1.40;99.90;;;;;;5048547;28;21030;-55
2023/12/07 04:38:11;;;;;;;77.37;29.73;;;1.30;99.90;;;;;;5052337;28;20214;-47
2023/12/07 04:40:38;;;;;;;82.83;29.77;;;1.30;99.90;;;;;;5061001;28;20240;-54
2023/12/07 04:43:05;;;;;;;76.03;29.53;;;1.30;99.90;;;;;;5050026;28;20198;-48
2023/12/07 04:45:33;;;;;;;71.00;29.83;;;1.40;99.90;;;;;;5059833;28;20215;-50
2023/12/07 04:48:00;;;;;;;67.73;29.17;;;1.30;99.90;;;;;;5029647;28;20191;-47
2023/12/07 04:50:27;;;;;;;80.07;32.63;;;1.40;99.90;;;;;;5062841;28;20305;-50
2023/12/07 04:52:55;;;;;;;80.00;31.43;;;1.30;99.90;;;;;;5058246;28;20835;-47
2023/12/07 04:55:21;;;;;;;79.63;32.83;;;1.30;99.90;;;;;;5051853;28;20196;-48
2023/12/07 04:57:48;;;;;;;67.70;31.00;;;1.30;99.90;;;;;;5051636;28;20202;-48
2023/12/07 05:00:15;;;;;;;75.33;32.30;;;1.40;99.90;;;;;;5057704;28;20214;-51
2023/12/07 05:02:44;;;;;;;74.20;31.97;;;1.40;99.90;;;;;;5022820;28;20272;-47
2023/12/07 05:05:11;;;;;;;69.47;31.67;;;1.40;99.90;;;;;;5060856;28;20194;-53
2023/12/07 05:07:38;;;;;;;77.40;30.70;;;1.40;99.90;;;;;;5052631;28;20247;-50
2023/12/07 05:10:06;;;;;;;69.77;30.40;;;1.40;99.90;;;;;;5052055;28;20257;-48
2023/12/07 05:12:32;;;;;;;68.13;31.50;;;1.40;99.90;;;;;;5050853;28;20876;-50
2023/12/07 05:14:59;;;;;;;73.73;31.17;;;1.40;99.90;;;;;;5059899;28;20202;-52
2023/12/07 05:17:26;;;;;;;61.53;30.60;;;1.40;99.90;;;;;;5056736;28;20206;-56
2023/12/07 05:19:54;;;;;;;68.80;31.07;;;1.40;99.90;;;;;;5032790;28;20215;-51
2023/12/07 05:22:21;;;;;;;65.87;29.80;;;1.40;99.90;;;;;;5040679;28;20621;-53
2023/12/07 05:24:48;;;;;;;60.23;28.70;;;1.40;99.90;;;;;;5058651;28;20194;-53
2023/12/07 05:27:15;;;;;;;70.50;29.93;;;1.40;99.90;;;;;;5035484;28;20222;-48
2023/12/07 05:29:42;;;;;;;60.47;28.33;;;1.40;99.90;;;;;;5048933;28;20234;-49
2023/12/07 05:32:09;;;;;;;58.83;29.30;;;1.40;99.90;;;;;;5057336;28;20676;-52
2023/12/07 05:34:36;;;;;;;58.20;27.60;;;1.40;99.90;;;;;;5025530;28;20212;-46
2023/12/07 05:37:05;;;;;;;59.57;28.00;;;1.40;99.90;;;;;;5055528;28;20218;-55
2023/12/07 05:39:31;;;;;;;58.57;28.33;;;1.40;99.90;;;;;;5055129;28;20194;-50
2023/12/07 05:41:58;;;;;;;63.23;28.93;;;1.40;99.90;;;;;;5047870;28;20248;-54
2023/12/07 05:44:25;;;;;;;65.10;28.83;;;1.40;99.90;;;;;;5050306;28;20297;-50
2023/12/07 05:46:52;;;;;;;63.10;29.50;;;1.40;99.90;;;;;;5058928;28;20284;-53
2023/12/07 05:49:19;;;;;;;59.90;30.50;;;1.40;99.90;;;;;;5042511;28;20394;-48
2023/12/07 05:51:46;;;;;;;54.73;27.20;;;1.40;99.90;;;;;;5015387;28;20226;-50
2023/12/07 05:54:14;;;;;;;60.60;29.00;;;1.40;99.90;;;;;;5049722;28;20210;-50
2023/12/07 05:56:42;;;;;;;60.83;29.80;;;1.40;99.90;;;;;;5031767;28;20233;-50
2023/12/07 05:59:09;;;;;;;56.33;27.17;;;1.40;99.90;;;;;;5059412;28;20576;-51
2023/12/07 06:01:37;;;;;;;54.40;27.67;;;1.40;99.90;;;;;;5049552;28;20230;-54
2023/12/07 06:04:04;;;;;;;59.57;27.53;;;1.40;99.90;;;;;;5048787;28;20807;-51
2023/12/07 06:06:31;;;;;;;59.33;29.63;;;1.40;99.90;;;;;;5028825;28;20806;-55
2023/12/07 06:08:58;;;;;;;58.30;26.90;;;1.40;99.90;;;;;;5052049;28;20213;-50
2023/12/07 06:11:26;;;;;;;56.33;27.93;;;1.40;99.90;;;;;;5047837;28;20279;-51
2023/12/07 06:13:52;;;;;;;59.83;27.33;;;1.40;99.90;;;;;;5050789;28;20919;-49
2023/12/07 06:16:19;;;;;;;49.93;26.03;;;1.40;99.90;;;;;;5054802;28;20229;-53
2023/12/07 06:18:46;;;;;;;51.83;26.77;;;1.40;99.90;;;;;;5055027;28;20183;-51
2023/12/07 06:21:15;;;;;;;53.43;25.83;;;1.50;99.90;;;;;;5020242;28;20287;-49
2023/12/07 06:23:42;;;;;;;57.97;28.97;;;1.50;99.90;;;;;;5044148;28;20195;-52
2023/12/07 06:26:09;;;;;;;64.33;27.53;;;1.40;99.90;;;;;;5040318;28;20218;-52
2023/12/07 06:28:37;;;;;;;60.80;28.13;;;1.40;99.90;;;;;;5033693;28;20223;-53
2023/12/07 06:31:08;;;;;;;58.93;29.07;;;1.40;99.90;;;;;;5050476;28;20219;-51
2023/12/07 06:33:35;;;;;;;53.17;26.67;;;1.40;99.90;;;;;;5049386;28;20209;-52
2023/12/07 06:36:03;;;;;;;56.97;27.20;;;1.50;99.90;;;;;;5030675;28;20223;-55
2023/12/07 06:38:29;;;;;;;55.70;25.87;;;1.40;99.90;;;;;;5042470;28;20194;-50
2023/12/07 06:40:57;;;;;;;54.47;25.43;;;1.40;99.90;;;;;;5047268;28;20272;-47
2023/12/07 06:43:24;;;;;;;62.63;27.00;;;1.40;99.90;;;;;;5040621;28;20940;-50
2023/12/07 06:45:52;;;;;;;58.97;25.70;;;1.50;99.90;;;;;;5060426;28;20803;-50
2023/12/07 06:48:19;;;;;;;55.97;28.63;;;1.50;99.90;;;;;;5055685;28;20195;-48
2023/12/07 06:50:45;;;;;;;53.80;27.60;;;1.50;99.90;;;;;;5054120;28;20617;-52
2023/12/07 06:53:12;;;;;;;54.30;29.00;;;1.40;99.90;;;;;;5027535;28;20214;-54
2023/12/07 06:55:39;;;;;;;54.07;26.57;;;1.50;99.90;;;;;;5055890;28;20222;-48
2023/12/07 06:58:06;;;;;;;50.73;27.40;;;1.50;99.90;;;;;;5048459;28;20257;-55
2023/12/07 07:00:33;;;;;;;56.27;25.87;;;1.50;99.90;;;;;;5047612;28;20187;-48
2023/12/07 07:03:02;;;;;;;53.77;26.30;;;1.50;99.90;;;;;;5061641;28;20198;-52
2023/12/07 07:05:28;;;;;;;51.83;26.07;;;1.50;99.90;;;;;;5052824;28;20316;-50
2023/12/07 07:07:55;;;;;;;55.63;28.03;;;1.50;99.90;;;;;;5062702;28;20191;-50
2023/12/07 07:10:22;;;;;;;69.93;27.97;;;1.50;99.90;;;;;;5032803;28;20222;-49
2023/12/07 07:12:49;;;;;;;57.37;26.27;;;1.50;99.90;;;;;;5052060;28;20248;-48
2023/12/07 07:15:17;;;;;;;67.83;29.40;;;1.50;99.90;;;;;;5050446;28;20209;-54
2023/12/07 07:17:45;;;;;;;61.47;28.17;;;1.50;99.90;;;;;;5057736;28;20290;-52
2023/12/07 07:20:13;;;;;;;62.00;27.30;;;1.50;99.90;;;;;;5063782;28;20198;-47
2023/12/07 07:22:40;;;;;;;65.27;29.17;;;1.50;99.90;;;;;;5047765;28;20194;-50
2023/12/07 07:25:08;;;;;;;61.30;28.03;;;1.50;99.90;;;;;;5033708;28;20199;-49
2023/12/07 07:27:34;;;;;;;53.87;26.67;;;1.50;99.90;;;;;;5063338;28;20669;-51
2023/12/07 07:30:04;;;;;;;66.63;28.27;;;1.50;99.90;;;;;;5038598;28;20936;-51
2023/12/07 07:32:31;;;;;;;59.77;26.80;;;1.50;99.90;;;;;;5052642;28;20199;-54
2023/12/07 07:34:59;;;;;;;59.13;27.00;;;1.50;99.90;;;;;;5059875;28;20187;-52
2023/12/07 07:37:27;;;;;;;56.53;27.83;;;1.50;99.90;;;;;;5064234;28;20230;-51
2023/12/07 07:39:54;;;;;;;63.53;27.27;;;1.50;99.90;;;;;;5030463;28;21907;-52
2023/12/07 07:42:21;;;;;;;56.77;27.63;;;1.50;99.90;;;;;;5065133;28;20642;-53
2023/12/07 07:44:47;;;;;;;58.27;27.80;;;1.50;99.90;;;;;;5049771;28;20199;-50
2023/12/07 07:47:14;;;;;;;60.43;27.70;;;1.50;99.90;;;;;;5046085;28;20286;-54
2023/12/07 07:49:41;;;;;;;59.83;27.80;;;1.50;99.90;;;;;;5061333;28;20195;-52
2023/12/07 07:52:08;;;;;;;54.23;28.13;;;1.60;99.90;;;;;;5062925;28;20291;-51
2023/12/07 07:54:37;;;;;;;64.13;28.33;;;1.60;99.90;;;;;;5063455;28;20281;-51
2023/12/07 07:57:04;;;;;;;66.87;29.70;;;1.50;99.90;;;;;;5032237;28;20214;-53
2023/12/07 07:59:31;;;;;;;65.43;26.73;;;1.60;99.90;;;;;;5056016;28;20292;-53
2023/12/07 08:01:58;;;;;;;61.70;27.30;;;1.50;99.90;;;;;;5042273;28;20195;-51
2023/12/07 08:04:25;;;;;;;63.83;28.53;;;1.50;99.90;;;;;;5064094;28;20665;-53
2023/12/07 08:06:51;;;;;;;66.17;29.93;;;1.50;99.90;;;;;;5059747;28;20215;-51
2023/12/07 08:09:18;;;;;;;66.20;29.77;;;1.60;99.90;;;;;;5053760;28;20208;-51
2023/12/07 08:11:46;;;;;;;66.50;28.57;;;1.60;99.90;;;;;;5030763;28;20250;-49
2023/12/07 08:14:13;;;;;;;63.77;28.97;;;1.50;99.90;;;;;;5048772;28;20198;-51
2023/12/07 08:16:43;;;;;;;60.23;29.07;;;1.60;99.90;;;;;;5043059;28;20302;-49
2023/12/07 08:19:10;;;;;;;63.57;29.27;;;1.60;99.90;;;;;;5059634;28;20218;-48
2023/12/07 08:21:37;;;;;;;66.47;29.43;;;1.50;99.90;;;;;;5047765;28;20692;-50
2023/12/07 08:24:05;;;;;;;59.90;29.47;;;1.60;99.90;;;;;;5059138;28;20190;-50
2023/12/07 08:26:32;;;;;;;57.67;28.07;;;1.60;99.90;;;;;;5051102;28;20237;-49
2023/12/07 08:29:00;;;;;;;61.80;28.60;;;1.60;99.90;;;;;;5026784;28;20202;-49
2023/12/07 08:31:27;;;;;;;60.80;27.57;;;1.60;99.90;;;;;;5053864;28;20210;-55
2023/12/07 08:33:54;;;;;;;60.23;28.80;;;1.60;99.90;;;;;;5048272;28;20214;-52
2023/12/07 08:36:21;;;;;;;55.67;27.83;;;1.70;99.90;;;;;;5062147;28;20264;-53
2023/12/07 08:38:47;;;;;;;58.83;27.73;;;1.70;99.90;;;;;;5059866;28;20600;-50
2023/12/07 08:41:14;;;;;;;57.57;28.13;;;1.60;99.90;;;;;;5050817;28;20195;-50
2023/12/07 08:43:41;;;;;;;60.90;27.57;;;1.70;99.90;;;;;;5022307;28;20686;-47
2023/12/07 08:46:10;;;;;;;62.90;29.43;;;1.70;99.90;;;;;;5049479;28;20357;-50
2023/12/07 08:48:37;;;;;;;54.93;29.40;;;1.70;99.90;;;;;;5049846;28;20609;-49
2023/12/07 08:51:04;;;;;;;60.03;27.60;;;1.70;99.90;;;;;;5058852;28;20211;-50
2023/12/07 08:53:31;;;;;;;64.17;29.80;;;1.70;99.90;;;;;;5048384;28;20295;-53
2023/12/07 08:55:58;;;;;;;67.07;29.57;;;1.80;99.90;;;;;;5060021;28;20218;-54
2023/12/07 08:58:25;;;;;;;58.53;28.47;;;1.80;99.90;;;;;;5030082;28;20201;-49
2023/12/07 09:00:52;;;;;;;63.10;30.00;;;1.80;99.90;;;;;;5043553;28;20195;-52
2023/12/07 09:03:20;;;;;;;55.90;28.07;;;1.80;99.90;;;;;;5047487;28;20199;-49
2023/12/07 09:05:47;;;;;;;57.87;29.83;;;1.80;99.90;;;;;;5045984;28;20210;-48
2023/12/07 09:08:14;;;;;;;60.13;28.90;;;1.90;99.90;;;;;;5057991;28;20598;-51
2023/12/07 09:10:41;;;;;;;63.80;29.83;;;1.90;99.90;;;;;;5060966;28;20226;-50
2023/12/07 09:13:08;;;;;;;58.40;29.23;;;1.90;99.90;;;;;;5050478;28;20902;-51
2023/12/07 09:15:37;;;;;;;60.73;29.10;;;2.00;99.90;;;;;;5015908;28;20320;-51
2023/12/07 09:18:04;;;;;;;63.10;29.47;;;2.10;99.90;;;;;;5050415;28;20201;-50
2023/12/07 09:20:32;;;;;;;65.07;31.00;;;2.10;99.90;;;;;;5049125;28;20202;-54
2023/12/07 09:22:59;;;;;;;62.67;29.87;;;2.20;99.90;;;;;;5048680;28;20202;-53
2023/12/07 09:25:27;;;;;;;68.83;32.40;;;2.10;99.90;;;;;;5061093;28;20252;-52
2023/12/07 09:27:54;;;;;;;65.70;30.37;;;2.20;99.90;;;;;;5049911;28;20230;-51
2023/12/07 09:30:20;;;;;;;62.53;30.43;;;2.30;99.90;;;;;;5025358;28;20328;-52
2023/12/07 09:32:47;;;;;;;69.77;33.90;;;2.30;99.90;;;;;;5052086;28;20198;-48
2023/12/07 09:35:18;;;;;;;64.33;30.27;;;2.20;99.90;;;;;;5049242;28;20199;-53
2023/12/07 09:37:47;;;;;;;70.60;33.83;;;2.30;99.90;;;;;;5051650;28;20205;-50
2023/12/07 09:40:19;;;;;;;62.73;31.40;;;2.30;99.90;;;;;;5060537;28;20210;-54
2023/12/07 09:42:46;;;;;;;64.63;32.57;;;2.30;99.90;;;;;;5052375;28;20219;-48
2023/12/07 09:45:16;;;;;;;63.87;31.70;;;2.30;99.90;;;;;;5027947;28;20260;-53
2023/12/07 09:47:43;;;;;;;67.63;32.73;;;2.20;99.90;;;;;;5047193;28;20572;-46
2023/12/07 09:50:11;;;;;;;80.27;33.30;;;2.10;99.90;;;;;;5055379;28;20194;-53
2023/12/07 09:52:39;;;;;;;67.30;32.33;;;2.10;99.90;;;;;;5048122;28;20218;-51
2023/12/07 09:55:09;;;;;;;73.47;33.77;;;2.10;99.90;;;;;;5056079;28;20194;-55
2023/12/07 09:57:38;;;;;;;77.03;34.23;;;2.00;99.90;;;;;;5051275;28;20293;-48
2023/12/07 10:00:07;;;;;;;66.27;33.10;;;2.00;99.90;;;;;;5021792;28;20292;-52
2023/12/07 10:02:38;;;;;;;74.70;33.33;;;2.00;99.90;;;;;;5043268;28;20206;-55
2023/12/07 10:05:06;;;;;;;75.63;34.60;;;2.00;99.90;;;;;;5046350;28;20289;-49
2023/12/07 10:07:37;;;;;;;78.63;36.70;;;2.00;99.90;;;;;;5047431;28;21013;-51
2023/12/07 10:10:05;;;;;;;74.07;34.67;;;2.10;99.90;;;;;;5057471;28;20281;-48
2023/12/07 10:12:34;;;;;;;71.10;34.50;;;2.10;99.90;;;;;;5058309;28;20218;-53
2023/12/07 10:15:03;;;;;;;74.87;33.17;;;2.20;99.90;;;;;;5043441;28;20296;-47
2023/12/07 10:17:47;;;;;;;81.93;34.40;;;2.10;99.90;;;;;;5034711;28;20275;-50
2023/12/07 10:20:15;;;;;;;76.67;34.20;;;2.10;99.90;;;;;;5040732;28;20209;-50
2023/12/07 10:22:42;;;;;;;75.60;32.73;;;2.10;99.90;;;;;;5048128;28;20256;-50
2023/12/07 10:25:11;;;;;;;71.20;33.77;;;2.20;99.90;;;;;;5058658;28;20640;-47
2023/12/07 10:27:41;;;;;;;73.10;34.10;;;2.20;99.90;;;;;;5056795;28;20201;-47
2023/12/07 10:30:10;;;;;;;80.40;35.17;;;2.30;99.90;;;;;;5045141;28;20203;-55
2023/12/07 10:32:39;;;;;;;81.07;33.97;;;2.30;99.90;;;;;;5018941;28;20226;-51
2023/12/07 10:35:08;;;;;;;74.03;34.57;;;2.30;99.90;;;;;;5045797;28;20209;-52
2023/12/07 10:37:35;;;;;;;79.90;35.33;;;2.30;99.90;;;;;;5052935;28;20653;-48
2023/12/07 10:40:03;;;;;;;82.40;36.07;;;2.40;99.90;;;;;;5063614;28;20199;-50
2023/12/07 10:42:35;;;;;;;77.97;35.70;;;2.40;99.90;;;;;;5063537;28;20218;-48
2023/12/07 10:45:07;;;;;;;85.67;38.00;;;2.40;99.90;;;;;;5056335;28;20260;-52
2023/12/07 10:47:37;;;;;;;83.53;38.43;;;2.40;99.90;;;;;;5031299;28;20275;-48
2023/12/07 10:50:10;;;;;;;79.20;35.27;;;2.30;99.90;;;;;;5055605;28;20315;-51
2023/12/07 10:52:40;;;;;;;80.13;35.40;;;2.40;99.90;;;;;;5051882;28;20211;-50
2023/12/07 10:55:12;;;;;;;80.13;35.57;;;2.40;99.90;;;;;;5054388;28;20518;-50
2023/12/07 10:57:39;;;;;;;84.67;37.27;;;2.40;99.90;;;;;;5059259;28;20183;-54
2023/12/07 11:00:09;;;;;;;79.80;34.83;;;2.50;99.90;;;;;;5056486;28;20852;-53
2023/12/07 11:02:37;;;;;;;77.03;36.30;;;2.50;99.90;;;;;;5030663;28;24879;-51
2023/12/07 11:05:05;;;;;;;82.97;36.47;;;2.50;99.90;;;;;;5064719;28;20210;-51
2023/12/07 11:07:41;;;;;;;76.00;35.33;;;2.50;99.90;;;;;;5043055;28;20230;-51
2023/12/07 11:10:15;;;;;;;83.27;36.97;;;2.50;99.90;;;;;;5061706;28;20195;-53
2023/12/07 11:12:48;;;;;;;78.57;35.17;;;2.60;99.90;;;;;;5056434;28;20214;-53
2023/12/07 11:15:18;;;;;;;79.27;35.27;;;2.50;99.90;;;;;;5059126;28;20199;-49
2023/12/07 11:17:56;;;;;;;77.17;37.77;;;2.50;99.90;;;;;;5024081;28;20234;-50
2023/12/07 11:20:32;;;;;;;72.30;34.80;;;2.60;99.90;;;;;;5055920;28;20271;-50
2023/12/07 11:23:00;;;;;;;75.47;34.63;;;2.60;99.90;;;;;;5051498;28;20198;-55
2023/12/07 11:25:27;;;;;;;75.70;36.07;;;2.60;99.90;;;;;;5062395;28;20190;-47
2023/12/07 11:28:01;;;;;;;73.43;33.90;;;2.60;99.90;;;;;;5063393;28;20245;-48
2023/12/07 11:30:31;;;;;;;67.50;34.30;;;2.50;99.90;;;;;;5060287;28;20210;-47
2023/12/07 11:32:58;;;;;;;66.23;34.50;;;2.60;99.90;;;;;;5024004;28;20719;-54
2023/12/07 11:35:25;;;;;;;68.73;33.83;;;2.50;99.90;;;;;;5057774;28;20245;-49
2023/12/07 11:38:06;;;;;;;66.60;33.00;;;2.50;99.90;;;;;;5051526;28;20198;-54
2023/12/07 11:40:35;;;;;;;72.33;34.40;;;2.40;99.90;;;;;;5049482;28;20268;-48
2023/12/07 11:43:05;;;;;;;59.57;32.17;;;2.40;99.90;;;;;;5060136;28;20199;-50
2023/12/07 11:45:40;;;;;;;67.20;32.83;;;2.40;99.90;;;;;;5059071;28;20297;-49
2023/12/07 11:48:13;;;;;;;61.77;31.83;;;2.40;99.90;;;;;;5053463;28;20234;-51
2023/12/07 11:50:56;;;;;;;61.77;29.30;;;2.40;99.90;;;;;;5034557;28;20194;-53
2023/12/07 11:53:24;;;;;;;57.03;31.00;;;2.30;99.90;;;;;;5039999;28;20238;-53
2023/12/07 11:55:52;;;;;;;55.07;29.23;;;2.40;99.90;;;;;;5051841;28;20222;-49
2023/12/07 11:58:18;;;;;;;58.30;28.73;;;2.30;99.90;;;;;;5060931;28;20266;-50
2023/12/07 12:00:47;;;;;;;57.17;28.57;;;2.30;99.90;;;;;;5059046;28;20199;-50
2023/12/07 12:03:14;;;;;;;57.10;29.20;;;2.40;99.90;;;;;;5051994;28;20196;-50
2023/12/07 12:05:43;;;;;;;54.67;28.43;;;2.40;99.90;;;;;;5033383;28;20996;-53
2023/12/07 12:08:09;;;;;;;56.50;28.60;;;2.30;99.90;;;;;;5050036;28;20191;-53
2023/12/07 12:10:36;;;;;;;56.03;28.67;;;2.40;99.90;;;;;;5049186;28;20723;-52
2023/12/07 12:13:04;;;;;;;52.80;26.43;;;2.40;99.90;;;;;;5057784;28;20705;-51
2023/12/07 12:15:31;;;;;;;53.70;27.70;;;2.30;99.90;;;;;;5061830;28;20227;-52
2023/12/07 12:18:00;;;;;;;61.20;29.93;;;2.40;99.90;;;;;;5058150;28;20203;-51
2023/12/07 12:20:28;;;;;;;57.30;28.93;;;2.40;99.90;;;;;;5035497;28;20222;-50
2023/12/07 12:22:55;;;;;;;58.63;27.37;;;2.40;99.90;;;;;;5056641;28;21043;-47
2023/12/07 12:25:25;;;;;;;56.40;27.17;;;2.30;99.90;;;;;;5042014;28;20919;-51
2023/12/07 12:27:53;;;;;;;54.70;28.60;;;2.40;99.90;;;;;;5061406;28;20198;-50
2023/12/07 12:30:22;;;;;;;53.90;27.90;;;2.40;99.90;;;;;;5059407;28;20252;-52
2023/12/07 12:32:50;;;;;;;53.50;29.33;;;2.30;99.90;;;;;;5059057;28;20748;-48
2023/12/07 12:35:19;;;;;;;54.40;28.80;;;2.30;99.90;;;;;;5030502;28;20214;-50
2023/12/07 12:37:48;;;;;;;55.10;27.63;;;2.40;99.90;;;;;;5052736;28;20248;-51